sensor_id;sensor_type;location;lat;lon;timestamp;temperature;humidity
6270;DHT22;3168;51.684;6.954;2022-11-20T00:01:03;-3.20;19.40
6270;DHT22;3168;51.684;6.954;2022-11-20T00:03:26;-3.40;18.50
6270;DHT22;3168;51.684;6.954;2022-11-20T00:05:59;-3.30;21.00
6270;DHT22;3168;51.684;6.954;2022-11-20T00:08:23;-3.40;20.90
6270;DHT22;3168;51.684;6.954;2022-11-20T00:10:55;-3.40;20.90
6270;DHT22;3168;51.684;6.954;2022-11-20T00:13:26;-3.30;23.50
6270;DHT22;3168;51.684;6.954;2022-11-20T00:16:03;-3.40;22.60
6270;DHT22;3168;51.684;6.954;2022-11-20T00:18:30;-3.20;21.10
6270;DHT22;3168;51.684;6.954;2022-11-20T00:21:04;-3.30;21.50
6270;DHT22;3168;51.684;6.954;2022-11-20T00:23:32;-3.30;21.00
6270;DHT22;3168;51.684;6.954;2022-11-20T00:26:07;-3.40;21.00
6270;DHT22;3168;51.684;6.954;2022-11-20T00:28:38;-3.40;20.90
6270;DHT22;3168;51.684;6.954;2022-11-20T00:31:13;-3.50;20.80
6270;DHT22;3168;51.684;6.954;2022-11-20T00:33:42;-3.80;21.50
6270;DHT22;3168;51.684;6.954;2022-11-20T00:36:12;-3.50;24.10
6270;DHT22;3168;51.684;6.954;2022-11-20T00:38:40;-3.70;24.70
6270;DHT22;3168;51.684;6.954;2022-11-20T00:41:18;-3.60;27.00
6270;DHT22;3168;51.684;6.954;2022-11-20T00:43:50;-3.60;28.30
6270;DHT22;3168;51.684;6.954;2022-11-20T00:46:17;-3.70;29.40
6270;DHT22;3168;51.684;6.954;2022-11-20T00:48:46;-3.70;29.90
6270;DHT22;3168;51.684;6.954;2022-11-20T00:51:17;-3.70;31.60
6270;DHT22;3168;51.684;6.954;2022-11-20T00:53:44;-3.60;31.20
6270;DHT22;3168;51.684;6.954;2022-11-20T00:56:13;-3.60;30.00
6270;DHT22;3168;51.684;6.954;2022-11-20T00:58:42;-3.70;29.10
6270;DHT22;3168;51.684;6.954;2022-11-20T01:01:10;-3.60;29.10
6270;DHT22;3168;51.684;6.954;2022-11-20T01:03:39;-3.60;29.70
6270;DHT22;3168;51.684;6.954;2022-11-20T01:06:10;-3.70;28.00
6270;DHT22;3168;51.684;6.954;2022-11-20T01:08:38;-3.70;28.10
6270;DHT22;3168;51.684;6.954;2022-11-20T01:11:06;-3.70;29.20
6270;DHT22;3168;51.684;6.954;2022-11-20T01:19:01;-3.70;31.70
6270;DHT22;3168;51.684;6.954;2022-11-20T01:21:30;-3.70;28.50
6270;DHT22;3168;51.684;6.954;2022-11-20T01:23:56;-3.70;28.00
6270;DHT22;3168;51.684;6.954;2022-11-20T01:26:25;-3.70;25.90
6270;DHT22;3168;51.684;6.954;2022-11-20T01:28:50;-3.80;24.50
6270;DHT22;3168;51.684;6.954;2022-11-20T01:31:20;-3.80;24.40
6270;DHT22;3168;51.684;6.954;2022-11-20T01:33:47;-3.80;24.40
6270;DHT22;3168;51.684;6.954;2022-11-20T01:36:15;-3.90;22.40
6270;DHT22;3168;51.684;6.954;2022-11-20T01:38:42;-3.90;22.60
6270;DHT22;3168;51.684;6.954;2022-11-20T01:41:09;-3.90;24.10
6270;DHT22;3168;51.684;6.954;2022-11-20T01:43:35;-3.90;23.30
6270;DHT22;3168;51.684;6.954;2022-11-20T01:46:17;-4.00;22.90
6270;DHT22;3168;51.684;6.954;2022-11-20T01:48:54;-4.10;24.20
6270;DHT22;3168;51.684;6.954;2022-11-20T01:51:29;-4.10;24.40
6270;DHT22;3168;51.684;6.954;2022-11-20T01:53:54;-4.00;29.00
6270;DHT22;3168;51.684;6.954;2022-11-20T01:56:20;-4.00;28.90
6270;DHT22;3168;51.684;6.954;2022-11-20T01:58:50;-3.90;29.20
6270;DHT22;3168;51.684;6.954;2022-11-20T02:01:13;-3.80;29.40
6270;DHT22;3168;51.684;6.954;2022-11-20T02:03:39;-3.70;28.40
6270;DHT22;3168;51.684;6.954;2022-11-20T02:06:15;-3.70;28.10
6270;DHT22;3168;51.684;6.954;2022-11-20T02:08:39;-3.70;26.20
6270;DHT22;3168;51.684;6.954;2022-11-20T02:11:05;-3.70;24.60
6270;DHT22;3168;51.684;6.954;2022-11-20T02:13:32;-3.70;24.90
6270;DHT22;3168;51.684;6.954;2022-11-20T02:16:05;-3.70;23.30
6270;DHT22;3168;51.684;6.954;2022-11-20T02:18:31;-3.70;22.80
6270;DHT22;3168;51.684;6.954;2022-11-20T02:21:06;-3.70;20.70
6270;DHT22;3168;51.684;6.954;2022-11-20T02:23:31;-3.80;20.00
6270;DHT22;3168;51.684;6.954;2022-11-20T02:25:54;-3.50;20.90
6270;DHT22;3168;51.684;6.954;2022-11-20T02:28:20;-3.70;18.80
6270;DHT22;3168;51.684;6.954;2022-11-20T02:30:56;-3.60;18.00
6270;DHT22;3168;51.684;6.954;2022-11-20T02:33:23;-3.80;17.90
6270;DHT22;3168;51.684;6.954;2022-11-20T02:35:49;-3.80;18.30
6270;DHT22;3168;51.684;6.954;2022-11-20T02:38:16;-3.80;18.70
6270;DHT22;3168;51.684;6.954;2022-11-20T02:40:42;-3.80;19.30
6270;DHT22;3168;51.684;6.954;2022-11-20T02:43:09;-3.90;18.00
6270;DHT22;3168;51.684;6.954;2022-11-20T02:45:35;-4.00;19.00
6270;DHT22;3168;51.684;6.954;2022-11-20T02:48:02;-4.00;18.60
6270;DHT22;3168;51.684;6.954;2022-11-20T02:50:28;-4.10;18.60
6270;DHT22;3168;51.684;6.954;2022-11-20T02:52:55;-4.00;20.20
6270;DHT22;3168;51.684;6.954;2022-11-20T02:55:21;-4.00;20.40
6270;DHT22;3168;51.684;6.954;2022-11-20T02:57:48;-4.10;20.80
6270;DHT22;3168;51.684;6.954;2022-11-20T03:00:14;-4.10;20.80
6270;DHT22;3168;51.684;6.954;2022-11-20T03:02:40;-4.10;20.50
6270;DHT22;3168;51.684;6.954;2022-11-20T03:05:06;-4.00;22.50
6270;DHT22;3168;51.684;6.954;2022-11-20T03:07:32;-3.90;24.20
6270;DHT22;3168;51.684;6.954;2022-11-20T03:09:59;-3.90;24.00
6270;DHT22;3168;51.684;6.954;2022-11-20T03:12:25;-3.90;24.20
6270;DHT22;3168;51.684;6.954;2022-11-20T03:14:51;-4.00;23.60
6270;DHT22;3168;51.684;6.954;2022-11-20T03:17:17;-4.00;23.00
6270;DHT22;3168;51.684;6.954;2022-11-20T03:19:43;-4.00;21.60
6270;DHT22;3168;51.684;6.954;2022-11-20T03:22:09;-4.00;20.50
6270;DHT22;3168;51.684;6.954;2022-11-20T03:24:35;-4.20;20.40
6270;DHT22;3168;51.684;6.954;2022-11-20T03:27:01;-4.20;20.40
6270;DHT22;3168;51.684;6.954;2022-11-20T03:29:27;-4.20;20.40
6270;DHT22;3168;51.684;6.954;2022-11-20T03:31:53;-4.30;20.30
6270;DHT22;3168;51.684;6.954;2022-11-20T03:34:19;-4.30;21.00
6270;DHT22;3168;51.684;6.954;2022-11-20T03:36:45;-4.10;24.20
6270;DHT22;3168;51.684;6.954;2022-11-20T03:39:11;-4.10;24.20
6270;DHT22;3168;51.684;6.954;2022-11-20T03:41:39;-4.10;23.00
6270;DHT22;3168;51.684;6.954;2022-11-20T03:44:05;-4.00;20.80
6270;DHT22;3168;51.684;6.954;2022-11-20T03:46:31;-4.10;20.60
6270;DHT22;3168;51.684;6.954;2022-11-20T03:48:57;-4.20;20.40
6270;DHT22;3168;51.684;6.954;2022-11-20T03:51:24;-4.10;20.30
6270;DHT22;3168;51.684;6.954;2022-11-20T03:53:49;-4.20;19.50
6270;DHT22;3168;51.684;6.954;2022-11-20T03:56:15;-4.20;18.90
6270;DHT22;3168;51.684;6.954;2022-11-20T03:58:41;-4.00;18.30
6270;DHT22;3168;51.684;6.954;2022-11-20T04:01:11;-4.30;16.70
6270;DHT22;3168;51.684;6.954;2022-11-20T04:03:37;-4.40;18.50
6270;DHT22;3168;51.684;6.954;2022-11-20T04:06:05;-4.40;20.10
6270;DHT22;3168;51.684;6.954;2022-11-20T04:08:30;-4.50;21.50
6270;DHT22;3168;51.684;6.954;2022-11-20T04:10:56;-4.50;23.70
6270;DHT22;3168;51.684;6.954;2022-11-20T04:13:22;-4.50;24.40
6270;DHT22;3168;51.684;6.954;2022-11-20T04:15:48;-4.50;24.80
6270;DHT22;3168;51.684;6.954;2022-11-20T04:18:14;-4.50;25.60
6270;DHT22;3168;51.684;6.954;2022-11-20T04:20:41;-4.50;25.60
6270;DHT22;3168;51.684;6.954;2022-11-20T04:23:07;-4.40;26.40
6270;DHT22;3168;51.684;6.954;2022-11-20T04:25:32;-4.30;25.90
6270;DHT22;3168;51.684;6.954;2022-11-20T04:27:58;-4.40;25.80
6270;DHT22;3168;51.684;6.954;2022-11-20T04:30:25;-4.50;24.50
6270;DHT22;3168;51.684;6.954;2022-11-20T04:32:51;-4.50;24.00
6270;DHT22;3168;51.684;6.954;2022-11-20T04:35:17;-4.60;23.90
6270;DHT22;3168;51.684;6.954;2022-11-20T04:37:43;-4.50;23.80
6270;DHT22;3168;51.684;6.954;2022-11-20T04:40:09;-4.60;22.90
6270;DHT22;3168;51.684;6.954;2022-11-20T04:42:36;-4.50;21.90
6270;DHT22;3168;51.684;6.954;2022-11-20T04:45:02;-4.60;21.70
6270;DHT22;3168;51.684;6.954;2022-11-20T04:47:29;-4.60;21.20
6270;DHT22;3168;51.684;6.954;2022-11-20T04:49:55;-4.60;20.70
6270;DHT22;3168;51.684;6.954;2022-11-20T04:52:22;-4.70;20.00
6270;DHT22;3168;51.684;6.954;2022-11-20T04:54:48;-4.70;20.00
6270;DHT22;3168;51.684;6.954;2022-11-20T04:57:14;-4.80;19.90
6270;DHT22;3168;51.684;6.954;2022-11-20T04:59:40;-4.80;20.00
6270;DHT22;3168;51.684;6.954;2022-11-20T05:02:06;-4.80;20.00
6270;DHT22;3168;51.684;6.954;2022-11-20T05:04:32;-4.70;21.50
6270;DHT22;3168;51.684;6.954;2022-11-20T05:06:58;-4.70;21.40
6270;DHT22;3168;51.684;6.954;2022-11-20T05:09:25;-4.70;20.70
6270;DHT22;3168;51.684;6.954;2022-11-20T05:11:50;-4.80;20.30
6270;DHT22;3168;51.684;6.954;2022-11-20T05:14:17;-4.80;20.00
6270;DHT22;3168;51.684;6.954;2022-11-20T05:16:43;-4.90;19.90
6270;DHT22;3168;51.684;6.954;2022-11-20T05:19:10;-5.00;21.80
6270;DHT22;3168;51.684;6.954;2022-11-20T05:21:37;-4.90;23.70
6270;DHT22;3168;51.684;6.954;2022-11-20T05:24:03;-4.90;23.90
6270;DHT22;3168;51.684;6.954;2022-11-20T05:26:29;-4.80;25.40
6270;DHT22;3168;51.684;6.954;2022-11-20T05:28:57;-4.70;25.50
6270;DHT22;3168;51.684;6.954;2022-11-20T05:31:24;-4.60;22.70
6270;DHT22;3168;51.684;6.954;2022-11-20T05:33:51;-4.50;21.50
6270;DHT22;3168;51.684;6.954;2022-11-20T05:36:17;-4.60;21.40
6270;DHT22;3168;51.684;6.954;2022-11-20T05:38:43;-4.60;20.70
6270;DHT22;3168;51.684;6.954;2022-11-20T05:41:11;-4.40;20.40
6270;DHT22;3168;51.684;6.954;2022-11-20T05:43:37;-4.40;19.50
6270;DHT22;3168;51.684;6.954;2022-11-20T05:46:03;-4.50;17.10
6270;DHT22;3168;51.684;6.954;2022-11-20T05:48:29;-4.20;16.50
6270;DHT22;3168;51.684;6.954;2022-11-20T05:50:56;-4.20;13.10
6270;DHT22;3168;51.684;6.954;2022-11-20T05:53:21;-4.20;12.40
6270;DHT22;3168;51.684;6.954;2022-11-20T05:55:55;-4.20;9.80
6270;DHT22;3168;51.684;6.954;2022-11-20T05:58:13;-4.30;8.00
6270;DHT22;3168;51.684;6.954;2022-11-20T06:00:39;-4.10;8.10
6270;DHT22;3168;51.684;6.954;2022-11-20T06:03:06;-4.20;7.80
6270;DHT22;3168;51.684;6.954;2022-11-20T06:05:33;-4.30;7.40
6270;DHT22;3168;51.684;6.954;2022-11-20T06:08:00;-4.30;7.00
6270;DHT22;3168;51.684;6.954;2022-11-20T06:10:24;-4.40;6.60
6270;DHT22;3168;51.684;6.954;2022-11-20T06:12:51;-4.50;9.00
6270;DHT22;3168;51.684;6.954;2022-11-20T06:15:17;-4.50;9.00
6270;DHT22;3168;51.684;6.954;2022-11-20T06:17:44;-4.40;10.60
6270;DHT22;3168;51.684;6.954;2022-11-20T06:20:10;-4.40;12.50
6270;DHT22;3168;51.684;6.954;2022-11-20T06:22:37;-4.30;12.70
6270;DHT22;3168;51.684;6.954;2022-11-20T06:25:03;-4.30;13.20
6270;DHT22;3168;51.684;6.954;2022-11-20T06:27:30;-4.30;12.70
6270;DHT22;3168;51.684;6.954;2022-11-20T06:29:56;-4.30;12.40
6270;DHT22;3168;51.684;6.954;2022-11-20T06:32:22;-4.30;11.60
6270;DHT22;3168;51.684;6.954;2022-11-20T06:34:49;-4.60;10.10
6270;DHT22;3168;51.684;6.954;2022-11-20T06:37:15;-4.60;10.10
6270;DHT22;3168;51.684;6.954;2022-11-20T06:39:41;-4.60;12.40
6270;DHT22;3168;51.684;6.954;2022-11-20T06:42:06;-4.60;12.40
6270;DHT22;3168;51.684;6.954;2022-11-20T06:44:32;-4.60;12.50
6270;DHT22;3168;51.684;6.954;2022-11-20T06:46:58;-4.60;14.90
6270;DHT22;3168;51.684;6.954;2022-11-20T06:49:24;-4.60;16.40
6270;DHT22;3168;51.684;6.954;2022-11-20T06:51:50;-4.60;17.10
6270;DHT22;3168;51.684;6.954;2022-11-20T06:54:16;-4.60;17.10
6270;DHT22;3168;51.684;6.954;2022-11-20T06:56:42;-4.50;20.00
6270;DHT22;3168;51.684;6.954;2022-11-20T06:59:08;-4.40;19.50
6270;DHT22;3168;51.684;6.954;2022-11-20T07:01:34;-4.50;19.10
6270;DHT22;3168;51.684;6.954;2022-11-20T07:04:00;-4.40;20.00
6270;DHT22;3168;51.684;6.954;2022-11-20T07:06:25;-4.50;18.70
6270;DHT22;3168;51.684;6.954;2022-11-20T07:08:51;-4.50;18.30
6270;DHT22;3168;51.684;6.954;2022-11-20T07:11:18;-4.50;18.40
6270;DHT22;3168;51.684;6.954;2022-11-20T07:13:44;-4.50;20.20
6270;DHT22;3168;51.684;6.954;2022-11-20T07:16:10;-4.50;17.50
6270;DHT22;3168;51.684;6.954;2022-11-20T07:18:36;-4.50;17.60
6270;DHT22;3168;51.684;6.954;2022-11-20T07:21:03;-4.50;17.50
6270;DHT22;3168;51.684;6.954;2022-11-20T07:23:28;-4.70;16.30
6270;DHT22;3168;51.684;6.954;2022-11-20T07:25:54;-4.80;17.50
6270;DHT22;3168;51.684;6.954;2022-11-20T07:28:20;-4.80;20.00
6270;DHT22;3168;51.684;6.954;2022-11-20T07:30:50;-4.90;22.20
6270;DHT22;3168;51.684;6.954;2022-11-20T07:33:15;-4.90;21.90
6270;DHT22;3168;51.684;6.954;2022-11-20T07:35:41;-4.80;23.70
6270;DHT22;3168;51.684;6.954;2022-11-20T07:38:06;-4.80;24.00
6270;DHT22;3168;51.684;6.954;2022-11-20T07:40:32;-4.70;27.20
6270;DHT22;3168;51.684;6.954;2022-11-20T07:42:58;-4.50;27.50
6270;DHT22;3168;51.684;6.954;2022-11-20T07:45:24;-4.50;26.50
6270;DHT22;3168;51.684;6.954;2022-11-20T07:47:50;-4.40;24.20
6270;DHT22;3168;51.684;6.954;2022-11-20T07:50:16;-4.50;20.20
6270;DHT22;3168;51.684;6.954;2022-11-20T07:52:42;-4.50;20.20
6270;DHT22;3168;51.684;6.954;2022-11-20T07:55:09;-4.50;20.60
6270;DHT22;3168;51.684;6.954;2022-11-20T07:57:34;-4.40;23.90
6270;DHT22;3168;51.684;6.954;2022-11-20T08:00:00;-4.30;23.70
6270;DHT22;3168;51.684;6.954;2022-11-20T08:02:25;-4.20;24.00
6270;DHT22;3168;51.684;6.954;2022-11-20T08:04:51;-4.10;23.90
6270;DHT22;3168;51.684;6.954;2022-11-20T08:07:17;-4.00;23.40
6270;DHT22;3168;51.684;6.954;2022-11-20T08:09:43;-3.90;24.10
6270;DHT22;3168;51.684;6.954;2022-11-20T08:12:10;-3.90;22.10
6270;DHT22;3168;51.684;6.954;2022-11-20T08:14:41;-3.80;21.40
6270;DHT22;3168;51.684;6.954;2022-11-20T08:17:06;-3.70;20.70
6270;DHT22;3168;51.684;6.954;2022-11-20T08:19:32;-3.70;20.60
6270;DHT22;3168;51.684;6.954;2022-11-20T08:21:58;-3.50;19.50
6270;DHT22;3168;51.684;6.954;2022-11-20T08:24:24;-3.50;19.00
6270;DHT22;3168;51.684;6.954;2022-11-20T08:26:50;-3.40;19.20
6270;DHT22;3168;51.684;6.954;2022-11-20T08:29:15;-3.40;20.80
6270;DHT22;3168;51.684;6.954;2022-11-20T08:31:41;-3.40;19.90
6270;DHT22;3168;51.684;6.954;2022-11-20T08:34:07;-3.30;20.80
6270;DHT22;3168;51.684;6.954;2022-11-20T08:36:33;-3.20;20.30
6270;DHT22;3168;51.684;6.954;2022-11-20T08:38:59;-3.10;21.00
6270;DHT22;3168;51.684;6.954;2022-11-20T08:41:25;-3.10;21.10
6270;DHT22;3168;51.684;6.954;2022-11-20T08:43:51;-3.00;21.20
6270;DHT22;3168;51.684;6.954;2022-11-20T08:46:17;-2.80;21.70
6270;DHT22;3168;51.684;6.954;2022-11-20T08:48:44;-2.80;21.20
6270;DHT22;3168;51.684;6.954;2022-11-20T08:53:46;-2.70;19.40
6270;DHT22;3168;51.684;6.954;2022-11-20T08:56:11;-2.50;19.20
6270;DHT22;3168;51.684;6.954;2022-11-20T08:58:38;-2.50;19.10
6270;DHT22;3168;51.684;6.954;2022-11-20T09:01:03;-2.40;18.90
6270;DHT22;3168;51.684;6.954;2022-11-20T09:03:29;-2.30;17.90
6270;DHT22;3168;51.684;6.954;2022-11-20T09:05:58;-2.20;17.90
6270;DHT22;3168;51.684;6.954;2022-11-20T09:08:24;-2.00;16.90
6270;DHT22;3168;51.684;6.954;2022-11-20T09:10:51;-2.00;16.80
6270;DHT22;3168;51.684;6.954;2022-11-20T09:13:16;-1.80;15.90
6270;DHT22;3168;51.684;6.954;2022-11-20T09:15:42;-1.70;14.30
6270;DHT22;3168;51.684;6.954;2022-11-20T09:18:08;-1.60;14.30
6270;DHT22;3168;51.684;6.954;2022-11-20T09:20:33;-1.40;14.40
6270;DHT22;3168;51.684;6.954;2022-11-20T09:22:59;-1.30;13.90
6270;DHT22;3168;51.684;6.954;2022-11-20T09:25:25;-1.30;12.10
6270;DHT22;3168;51.684;6.954;2022-11-20T09:27:54;-1.30;11.00
6270;DHT22;3168;51.684;6.954;2022-11-20T09:30:19;-1.20;14.60
6270;DHT22;3168;51.684;6.954;2022-11-20T09:32:46;-1.10;10.70
6270;DHT22;3168;51.684;6.954;2022-11-20T09:35:12;-1.10;10.60
6270;DHT22;3168;51.684;6.954;2022-11-20T09:37:38;-1.00;11.70
6270;DHT22;3168;51.684;6.954;2022-11-20T09:40:04;-0.90;11.30
6270;DHT22;3168;51.684;6.954;2022-11-20T09:42:52;-0.80;12.10
6270;DHT22;3168;51.684;6.954;2022-11-20T09:45:23;-0.70;13.30
6270;DHT22;3168;51.684;6.954;2022-11-20T09:48:14;-0.60;10.30
6270;DHT22;3168;51.684;6.954;2022-11-20T09:50:53;-0.60;8.40
6270;DHT22;3168;51.684;6.954;2022-11-20T09:53:30;-0.40;11.30
6270;DHT22;3168;51.684;6.954;2022-11-20T09:55:52;-0.40;11.30
6270;DHT22;3168;51.684;6.954;2022-11-20T09:58:25;-0.20;11.00
6270;DHT22;3168;51.684;6.954;2022-11-20T10:00:49;-0.20;9.20
6270;DHT22;3168;51.684;6.954;2022-11-20T10:03:16;-0.10;8.90
6270;DHT22;3168;51.684;6.954;2022-11-20T10:05:44;0.00;8.70
6270;DHT22;3168;51.684;6.954;2022-11-20T10:08:17;0.20;9.10
6270;DHT22;3168;51.684;6.954;2022-11-20T10:10:45;0.30;7.70
6270;DHT22;3168;51.684;6.954;2022-11-20T10:13:57;0.40;6.40
6270;DHT22;3168;51.684;6.954;2022-11-20T10:17:03;0.50;5.40
6270;DHT22;3168;51.684;6.954;2022-11-20T10:22:11;0.80;1.00
6270;DHT22;3168;51.684;6.954;2022-11-20T10:27:43;1.00;1.00
6270;DHT22;3168;51.684;6.954;2022-11-20T10:30:09;1.10;1.00
6270;DHT22;3168;51.684;6.954;2022-11-20T10:32:37;1.20;1.00
6270;DHT22;3168;51.684;6.954;2022-11-20T10:35:07;1.30;1.00
6270;DHT22;3168;51.684;6.954;2022-11-20T10:37:32;1.20;1.00
6270;DHT22;3168;51.684;6.954;2022-11-20T10:43:01;1.40;1.00
6270;DHT22;3168;51.684;6.954;2022-11-20T10:45:36;1.50;3.20
6270;DHT22;3168;51.684;6.954;2022-11-20T10:48:19;1.50;3.30
6270;DHT22;3168;51.684;6.954;2022-11-20T10:50:47;1.70;1.00
6270;DHT22;3168;51.684;6.954;2022-11-20T10:53:40;1.70;1.00
6270;DHT22;3168;51.684;6.954;2022-11-20T10:56:45;1.80;1.00
6270;DHT22;3168;51.684;6.954;2022-11-20T10:59:00;1.80;1.00
6270;DHT22;3168;51.684;6.954;2022-11-20T11:01:20;1.70;1.00
6270;DHT22;3168;51.684;6.954;2022-11-20T11:03:47;1.70;1.00
6270;DHT22;3168;51.684;6.954;2022-11-20T11:06:36;1.90;1.00
6270;DHT22;3168;51.684;6.954;2022-11-20T11:09:02;1.90;1.00
6270;DHT22;3168;51.684;6.954;2022-11-20T11:11:30;1.90;1.00
6270;DHT22;3168;51.684;6.954;2022-11-20T11:14:07;1.90;1.00
6270;DHT22;3168;51.684;6.954;2022-11-20T11:16:33;1.90;1.00
6270;DHT22;3168;51.684;6.954;2022-11-20T11:19:05;2.10;1.00
6270;DHT22;3168;51.684;6.954;2022-11-20T11:21:31;2.10;1.00
6270;DHT22;3168;51.684;6.954;2022-11-20T11:23:59;1.80;1.00
6270;DHT22;3168;51.684;6.954;2022-11-20T11:26:23;2.30;1.00
6270;DHT22;3168;51.684;6.954;2022-11-20T11:28:53;2.40;1.00
6270;DHT22;3168;51.684;6.954;2022-11-20T11:31:23;2.40;1.00
6270;DHT22;3168;51.684;6.954;2022-11-20T11:33:48;2.40;1.00
6270;DHT22;3168;51.684;6.954;2022-11-20T11:36:16;2.50;1.00
6270;DHT22;3168;51.684;6.954;2022-11-20T11:38:41;2.60;1.00
6270;DHT22;3168;51.684;6.954;2022-11-20T11:41:09;2.90;1.00
6270;DHT22;3168;51.684;6.954;2022-11-20T11:43:34;2.90;1.00
6270;DHT22;3168;51.684;6.954;2022-11-20T11:46:08;3.00;1.00
6270;DHT22;3168;51.684;6.954;2022-11-20T11:48:30;3.20;1.00
6270;DHT22;3168;51.684;6.954;2022-11-20T11:50:56;3.30;1.00
6270;DHT22;3168;51.684;6.954;2022-11-20T11:53:23;3.40;1.00
6270;DHT22;3168;51.684;6.954;2022-11-20T11:55:56;3.50;1.00
6270;DHT22;3168;51.684;6.954;2022-11-20T11:58:33;3.60;1.00
6270;DHT22;3168;51.684;6.954;2022-11-20T12:03:44;3.50;1.00
6270;DHT22;3168;51.684;6.954;2022-11-20T12:06:12;3.50;1.00
6270;DHT22;3168;51.684;6.954;2022-11-20T12:11:13;3.30;1.00
6270;DHT22;3168;51.684;6.954;2022-11-20T12:13:48;3.30;1.00
6270;DHT22;3168;51.684;6.954;2022-11-20T12:16:13;3.50;1.00
6270;DHT22;3168;51.684;6.954;2022-11-20T12:18:39;3.60;1.00
6270;DHT22;3168;51.684;6.954;2022-11-20T12:21:28;3.60;1.00
6270;DHT22;3168;51.684;6.954;2022-11-20T12:24:06;3.50;1.00
6270;DHT22;3168;51.684;6.954;2022-11-20T12:26:54;3.50;1.00
6270;DHT22;3168;51.684;6.954;2022-11-20T12:29:37;3.40;1.00
6270;DHT22;3168;51.684;6.954;2022-11-20T12:32:27;3.50;1.00
6270;DHT22;3168;51.684;6.954;2022-11-20T12:35:10;3.50;1.00
6270;DHT22;3168;51.684;6.954;2022-11-20T12:37:50;3.40;1.00
6270;DHT22;3168;51.684;6.954;2022-11-20T12:40:35;3.30;1.00
6270;DHT22;3168;51.684;6.954;2022-11-20T12:43:06;3.40;1.00
6270;DHT22;3168;51.684;6.954;2022-11-20T12:45:41;3.40;1.00
6270;DHT22;3168;51.684;6.954;2022-11-20T12:48:26;3.30;1.00
6270;DHT22;3168;51.684;6.954;2022-11-20T12:51:11;3.30;1.00
6270;DHT22;3168;51.684;6.954;2022-11-20T12:53:42;3.30;1.00
6270;DHT22;3168;51.684;6.954;2022-11-20T12:56:18;3.30;1.00
6270;DHT22;3168;51.684;6.954;2022-11-20T12:58:43;3.30;1.00
6270;DHT22;3168;51.684;6.954;2022-11-20T13:01:11;3.40;1.00
6270;DHT22;3168;51.684;6.954;2022-11-20T13:03:39;3.40;1.00
6270;DHT22;3168;51.684;6.954;2022-11-20T13:06:14;3.40;1.00
6270;DHT22;3168;51.684;6.954;2022-11-20T13:08:41;3.40;1.00
6270;DHT22;3168;51.684;6.954;2022-11-20T13:11:26;3.40;1.00
6270;DHT22;3168;51.684;6.954;2022-11-20T13:14:09;3.40;3.40
6270;DHT22;3168;51.684;6.954;2022-11-20T13:19:09;3.60;1.00
6270;DHT22;3168;51.684;6.954;2022-11-20T13:21:36;3.50;1.00
6270;DHT22;3168;51.684;6.954;2022-11-20T13:24:05;3.70;1.00
6270;DHT22;3168;51.684;6.954;2022-11-20T13:26:30;3.70;1.00
6270;DHT22;3168;51.684;6.954;2022-11-20T13:29:09;3.70;1.00
6270;DHT22;3168;51.684;6.954;2022-11-20T13:31:32;3.70;1.00
6270;DHT22;3168;51.684;6.954;2022-11-20T13:33:57;3.70;1.00
6270;DHT22;3168;51.684;6.954;2022-11-20T13:36:24;3.70;1.00
6270;DHT22;3168;51.684;6.954;2022-11-20T13:38:50;3.70;1.00
6270;DHT22;3168;51.684;6.954;2022-11-20T13:41:23;3.70;1.00
6270;DHT22;3168;51.684;6.954;2022-11-20T13:43:54;3.70;1.00
6270;DHT22;3168;51.684;6.954;2022-11-20T13:46:19;3.60;1.00
6270;DHT22;3168;51.684;6.954;2022-11-20T13:48:45;3.60;1.00
6270;DHT22;3168;51.684;6.954;2022-11-20T13:51:36;3.60;1.00
6270;DHT22;3168;51.684;6.954;2022-11-20T13:54:09;3.60;1.00
6270;DHT22;3168;51.684;6.954;2022-11-20T13:56:34;3.60;1.00
6270;DHT22;3168;51.684;6.954;2022-11-20T13:59:13;3.50;1.60
6270;DHT22;3168;51.684;6.954;2022-11-20T14:01:37;3.50;2.00
6270;DHT22;3168;51.684;6.954;2022-11-20T14:04:07;3.50;7.00
6270;DHT22;3168;51.684;6.954;2022-11-20T14:06:33;3.60;9.80
6270;DHT22;3168;51.684;6.954;2022-11-20T14:08:59;3.50;10.90
6270;DHT22;3168;51.684;6.954;2022-11-20T14:11:26;3.50;13.20
6270;DHT22;3168;51.684;6.954;2022-11-20T14:14:04;3.50;16.40
6270;DHT22;3168;51.684;6.954;2022-11-20T14:16:30;3.50;17.60
6270;DHT22;3168;51.684;6.954;2022-11-20T14:21:48;3.40;25.30
6270;DHT22;3168;51.684;6.954;2022-11-20T14:24:13;3.40;25.20
6270;DHT22;3168;51.684;6.954;2022-11-20T14:26:41;3.40;26.90
6270;DHT22;3168;51.684;6.954;2022-11-20T14:29:12;3.40;29.00
6270;DHT22;3168;51.684;6.954;2022-11-20T14:31:32;3.40;27.00
6270;DHT22;3168;51.684;6.954;2022-11-20T14:33:58;3.30;26.60
6270;DHT22;3168;51.684;6.954;2022-11-20T14:36:24;3.20;26.00
6270;DHT22;3168;51.684;6.954;2022-11-20T14:38:50;3.20;28.20
6270;DHT22;3168;51.684;6.954;2022-11-20T14:41:18;3.30;28.90
6270;DHT22;3168;51.684;6.954;2022-11-20T14:43:45;3.20;28.30
6270;DHT22;3168;51.684;6.954;2022-11-20T14:46:10;3.20;28.90
6270;DHT22;3168;51.684;6.954;2022-11-20T14:48:41;3.20;28.80
6270;DHT22;3168;51.684;6.954;2022-11-20T14:51:08;3.20;29.30
6270;DHT22;3168;51.684;6.954;2022-11-20T14:53:32;3.10;33.30
6270;DHT22;3168;51.684;6.954;2022-11-20T14:55:59;3.10;36.90
6270;DHT22;3168;51.684;6.954;2022-11-20T14:58:25;3.10;39.00
6270;DHT22;3168;51.684;6.954;2022-11-20T15:01:02;3.00;41.00
6270;DHT22;3168;51.684;6.954;2022-11-20T15:03:31;2.90;43.70
6270;DHT22;3168;51.684;6.954;2022-11-20T15:05:56;3.00;46.00
6270;DHT22;3168;51.684;6.954;2022-11-20T15:08:22;3.00;46.90
6270;DHT22;3168;51.684;6.954;2022-11-20T15:10:48;2.90;48.70
6270;DHT22;3168;51.684;6.954;2022-11-20T15:13:16;2.90;50.70
6270;DHT22;3168;51.684;6.954;2022-11-20T15:15:46;2.90;55.10
6270;DHT22;3168;51.684;6.954;2022-11-20T15:18:14;2.80;54.90
6270;DHT22;3168;51.684;6.954;2022-11-20T15:20:40;2.90;55.60
6270;DHT22;3168;51.684;6.954;2022-11-20T15:23:10;2.80;57.10
6270;DHT22;3168;51.684;6.954;2022-11-20T15:25:36;2.80;60.80
6270;DHT22;3168;51.684;6.954;2022-11-20T15:28:02;2.80;64.60
6270;DHT22;3168;51.684;6.954;2022-11-20T15:30:28;2.80;69.10
6270;DHT22;3168;51.684;6.954;2022-11-20T15:32:55;2.70;71.80
6270;DHT22;3168;51.684;6.954;2022-11-20T15:35:21;2.80;74.20
6270;DHT22;3168;51.684;6.954;2022-11-20T15:37:47;2.60;77.60
6270;DHT22;3168;51.684;6.954;2022-11-20T15:40:14;2.60;80.30
6270;DHT22;3168;51.684;6.954;2022-11-20T15:42:40;2.60;81.90
6270;DHT22;3168;51.684;6.954;2022-11-20T15:45:08;2.60;83.60
6270;DHT22;3168;51.684;6.954;2022-11-20T15:47:34;2.60;84.90
6270;DHT22;3168;51.684;6.954;2022-11-20T15:50:09;2.60;86.50
6270;DHT22;3168;51.684;6.954;2022-11-20T15:52:34;2.60;87.60
6270;DHT22;3168;51.684;6.954;2022-11-20T15:55:01;2.60;89.60
6270;DHT22;3168;51.684;6.954;2022-11-20T15:57:27;2.50;90.00
6270;DHT22;3168;51.684;6.954;2022-11-20T15:59:53;2.50;90.90
6270;DHT22;3168;51.684;6.954;2022-11-20T16:02:19;2.40;91.90
6270;DHT22;3168;51.684;6.954;2022-11-20T16:04:46;2.50;92.60
6270;DHT22;3168;51.684;6.954;2022-11-20T16:07:12;2.50;93.10
6270;DHT22;3168;51.684;6.954;2022-11-20T16:09:39;2.50;93.80
6270;DHT22;3168;51.684;6.954;2022-11-20T16:12:05;2.50;94.60
6270;DHT22;3168;51.684;6.954;2022-11-20T16:14:32;2.60;95.60
6270;DHT22;3168;51.684;6.954;2022-11-20T16:17:04;2.60;95.60
6270;DHT22;3168;51.684;6.954;2022-11-20T16:19:31;2.40;95.50
6270;DHT22;3168;51.684;6.954;2022-11-20T16:21:58;2.50;96.00
6270;DHT22;3168;51.684;6.954;2022-11-20T16:24:28;2.50;97.00
6270;DHT22;3168;51.684;6.954;2022-11-20T16:26:54;2.50;97.40
6270;DHT22;3168;51.684;6.954;2022-11-20T16:29:21;2.50;98.10
6270;DHT22;3168;51.684;6.954;2022-11-20T16:31:48;2.60;98.60
6270;DHT22;3168;51.684;6.954;2022-11-20T16:34:17;2.60;99.40
6270;DHT22;3168;51.684;6.954;2022-11-20T16:36:48;2.50;99.40
6270;DHT22;3168;51.684;6.954;2022-11-20T16:39:15;2.50;99.40
6270;DHT22;3168;51.684;6.954;2022-11-20T16:41:43;2.60;99.90
6270;DHT22;3168;51.684;6.954;2022-11-20T16:44:10;2.50;99.90
6270;DHT22;3168;51.684;6.954;2022-11-20T16:46:37;2.50;99.90